Česky Dansk Deutsch English Español Suomi Français Magyar Italiano Nederlands norsk Polski Português svenska Türkçe

 

Het Weer

Clermont-Ferrand (Frankrijk)

13:30, 20 augustus 2016 (GMT)

NWNNE
WE
SWSSE
Home            
Clermont-Ferrand Vichy Montlucon / Gueret Le Puy St-Etienne Boutheon Saint-Yan Aurillac Nevers Macon Lyon / Bron Mende / Brenoux Avord Lyon / Satolas Brive Limoges Bourges Chateauroux Rodez Amberieu Grenoble / St. Geoirs Montelimar Cassagnes-Begonhes Perigueux

Om een weerknop op uw website of weblog te plaatsen, copieer onderstaande code en plak die in uw pagina. In het eerste vakje staat HTML-code, in het tweede vakje UBB-code.


Add to Google

Details

Wind speed:2 bf, 6 kn, 3.1 m/s, 6.9 miles/h, 11.1 km/h
Wind direction:E, 100° - S, 170°
Visibility:Greater than 10000 m, 10 km, 32800 ft, 6.2 miles
Clouds:Ein wenig bewölkt at 5000 ft, 1524 m
Temperature:20°C, 68°F
Dew-point:13°C, 55°F
Atmospheric pressure:1018 hPa, 763.6 mmHg, 30.06 inHg, 1.005 atm
Relative humidity:64.1 %
METAR:LFLC 201330Z AUTO 13006KT 100V170 9999 FEW050 20/13 Q1018 NOSIG

Snelkoppelingen

Actuele weersinformatie van de hele wereld. Voeg locaties toe met het plus (+) symbool. Deze snelkoppelingen kunnen worden toegevoegd aan Google.

Lid van de Technetium groep

website free tracking
StatCounter NetStat W3C Validator

28-05-2022 01:47:41
astro.technetium.be money.technetium.be phote.technetium.be tafeltennistafel.technetium.be www.ligfiets.net